createdAt,value
2018-12-24T00:00:04.216Z,88.24
2018-12-24T00:01:04.206Z,88.14
2018-12-24T00:02:04.307Z,88.76
2018-12-24T00:03:04.189Z,88.14
2018-12-24T00:04:04.169Z,88.41
2018-12-24T00:05:04.164Z,88.45
2018-12-24T00:06:04.150Z,88.56
2018-12-24T00:07:04.154Z,88.86
2018-12-24T00:08:04.128Z,88.14
2018-12-24T00:09:04.119Z,88.86
2018-12-24T00:10:04.112Z,88.80
2018-12-24T00:11:04.095Z,88.80
2018-12-24T00:12:07.179Z,89.22
2018-12-24T00:13:04.078Z,89.01
2018-12-24T00:14:04.087Z,89.11
2018-12-24T00:15:04.055Z,89.01
2018-12-24T00:16:04.043Z,89.11
2018-12-24T00:17:04.046Z,89.15
2018-12-24T00:18:04.021Z,89.46
2018-12-24T00:19:04.011Z,89.94
2018-12-24T00:20:04.003Z,89.98
2018-12-24T00:21:03.987Z,89.87
2018-12-24T00:22:03.988Z,89.77
2018-12-24T00:23:03.969Z,89.87
2018-12-24T00:24:03.959Z,89.83
2018-12-24T00:25:03.946Z,89.77
2018-12-24T00:26:03.937Z,89.67
2018-12-24T00:27:03.941Z,89.25
2018-12-24T00:28:03.913Z,89.77
2018-12-24T00:29:03.907Z,89.73
2018-12-24T00:30:03.893Z,89.87
2018-12-24T00:31:03.879Z,90.08
2018-12-24T00:32:03.882Z,89.98
2018-12-24T00:33:03.859Z,90.08
2018-12-24T00:34:03.846Z,90.08
2018-12-24T00:35:03.837Z,89.77
2018-12-24T00:36:03.833Z,89.92
2018-12-24T00:37:03.828Z,89.67
2018-12-24T00:38:03.802Z,89.25
2018-12-24T00:39:03.795Z,88.84
2018-12-24T00:40:03.786Z,88.64
2018-12-24T00:41:03.772Z,88.12
2018-12-24T00:42:03.780Z,88.43
2018-12-24T00:43:03.750Z,87.40
2018-12-24T00:44:03.739Z,87.08
2018-12-24T00:45:03.728Z,86.47
2018-12-24T00:46:03.715Z,86.47
2018-12-24T00:47:03.718Z,86.36
2018-12-24T00:48:03.700Z,86.47
2018-12-24T00:49:03.683Z,86.68
2018-12-24T00:50:03.672Z,86.71
2018-12-24T00:51:03.663Z,86.20
2018-12-24T00:52:03.666Z,86.51
2018-12-24T00:53:03.648Z,85.47
2018-12-24T00:54:03.629Z,85.06
2018-12-24T00:55:03.623Z,84.55
2018-12-24T00:56:03.609Z,83.31
2018-12-24T00:57:03.617Z,83.45
2018-12-24T00:58:03.589Z,83.04
2018-12-24T00:59:03.578Z,83.76
2018-12-24T01:00:03.565Z,83.25
2018-12-24T01:01:03.558Z,83.45
2018-12-24T01:02:03.553Z,83.14
2018-12-24T01:03:03.534Z,83.45
2018-12-24T01:04:03.523Z,83.18
2018-12-24T01:05:03.516Z,83.45
2018-12-24T01:06:03.503Z,82.97
2018-12-24T01:07:03.506Z,83.25
2018-12-24T01:08:03.483Z,83.80
2018-12-24T01:09:03.472Z,83.90
2018-12-24T01:10:03.460Z,83.80
2018-12-24T01:11:03.453Z,83.49
2018-12-24T01:12:03.448Z,84.00
2018-12-24T01:13:03.427Z,83.18
2018-12-24T01:14:03.420Z,84.00
2018-12-24T01:15:03.405Z,84.11
2018-12-24T01:16:03.399Z,84.52
2018-12-24T01:17:03.400Z,84.83
2018-12-24T01:18:03.373Z,84.87
2018-12-24T01:19:03.365Z,84.42
2018-12-24T01:20:03.355Z,84.87
2018-12-24T01:21:03.340Z,84.05
2018-12-24T01:22:03.362Z,83.94
2018-12-24T01:23:03.318Z,84.56
2018-12-24T01:24:03.308Z,83.94
2018-12-24T01:25:03.295Z,83.94
2018-12-24T01:26:03.284Z,84.05
2018-12-24T01:27:03.276Z,83.25
2018-12-24T01:28:03.279Z,83.73
2018-12-24T01:29:03.253Z,83.11
2018-12-24T01:30:03.243Z,83.32
2018-12-24T01:31:03.233Z,83.46
2018-12-24T01:32:03.222Z,83.87
2018-12-24T01:33:03.226Z,83.98
2018-12-24T01:34:03.200Z,84.19
2018-12-24T01:35:03.188Z,84.60
2018-12-24T01:36:03.181Z,84.70
2018-12-24T01:37:03.168Z,84.70
2018-12-24T01:38:03.169Z,83.98
2018-12-24T01:39:03.148Z,83.61
2018-12-24T01:40:03.134Z,83.91
2018-12-24T01:41:03.124Z,83.87
2018-12-24T01:42:03.113Z,83.77
2018-12-24T01:43:03.117Z,85.02
2018-12-24T01:44:03.097Z,84.08
2018-12-24T01:45:03.086Z,83.87
2018-12-24T01:46:03.070Z,83.98
2018-12-24T01:47:03.066Z,83.15
2018-12-24T01:48:03.062Z,82.98
2018-12-24T01:49:03.041Z,83.29
2018-12-24T01:50:03.031Z,83.05
2018-12-24T01:51:03.017Z,83.56
2018-12-24T01:52:03.010Z,83.25
2018-12-24T01:53:03.007Z,82.98
2018-12-24T01:54:02.991Z,83.36
2018-12-24T01:55:02.982Z,83.19
2018-12-24T01:56:02.997Z,84.01
2018-12-24T01:57:02.954Z,83.05
2018-12-24T01:58:02.958Z,83.91
2018-12-24T01:59:02.935Z,84.01
2018-12-24T02:00:02.922Z,84.84
2018-12-24T02:01:02.910Z,84.43
2018-12-24T02:02:02.906Z,85.16
2018-12-24T02:03:02.903Z,85.05
2018-12-24T02:04:02.880Z,84.84
2018-12-24T02:05:02.890Z,85.16
2018-12-24T02:06:02.860Z,85.16
2018-12-24T02:07:02.852Z,85.05
2018-12-24T02:08:02.855Z,84.74
2018-12-24T02:09:02.828Z,84.88
2018-12-24T02:10:02.816Z,84.78
2018-12-24T02:11:02.819Z,84.06
2018-12-24T02:12:02.795Z,84.27
2018-12-24T02:13:02.795Z,83.54
2018-12-24T02:14:02.776Z,83.12
2018-12-24T02:15:02.762Z,83.33
2018-12-24T02:16:02.764Z,83.54
2018-12-24T02:17:02.747Z,83.85
2018-12-24T02:18:02.747Z,83.89
2018-12-24T02:19:02.722Z,84.16
2018-12-24T02:20:02.711Z,84.58
2018-12-24T02:21:02.698Z,84.99
2018-12-24T02:22:02.692Z,84.51
2018-12-24T02:23:02.690Z,84.72
2018-12-24T02:24:02.665Z,84.41
2018-12-24T02:25:02.664Z,84.72
2018-12-24T02:26:02.646Z,84.92
2018-12-24T02:27:02.636Z,84.41
2018-12-24T02:28:02.634Z,84.61
2018-12-24T02:29:02.612Z,84.61
2018-12-24T02:30:02.609Z,85.34
2018-12-24T02:31:02.596Z,85.03
2018-12-24T02:32:02.580Z,85.03
2018-12-24T02:33:02.579Z,84.72
2018-12-24T02:34:02.578Z,85.13
2018-12-24T02:35:02.553Z,84.51
2018-12-24T02:36:02.540Z,84.72
2018-12-24T02:37:02.528Z,85.24
2018-12-24T02:38:02.526Z,85.13
2018-12-24T02:39:02.508Z,85.13
2018-12-24T02:40:02.496Z,84.92
2018-12-24T02:41:02.484Z,84.82
2018-12-24T02:42:02.472Z,84.51
2018-12-24T02:43:02.485Z,84.92
2018-12-24T02:44:02.451Z,85.03
2018-12-24T02:45:02.444Z,85.06
2018-12-24T02:46:02.445Z,85.55
2018-12-24T02:47:02.424Z,85.03
2018-12-24T02:48:02.422Z,85.27
2018-12-24T02:49:02.396Z,85.17
2018-12-24T02:50:02.390Z,85.17
2018-12-24T02:51:02.381Z,85.27
2018-12-24T02:52:02.487Z,84.55
2018-12-24T02:53:02.367Z,84.44
2018-12-24T02:54:02.347Z,85.06
2018-12-24T02:55:02.334Z,84.75
2018-12-24T02:56:02.332Z,85.17
2018-12-24T02:57:02.314Z,85.06
2018-12-24T02:58:02.331Z,84.23
2018-12-24T02:59:02.290Z,83.62
2018-12-24T03:00:02.280Z,83.41
2018-12-24T03:01:02.267Z,83.72
2018-12-24T03:02:02.260Z,83.41
2018-12-24T03:03:02.273Z,83.62
2018-12-24T03:04:02.252Z,83.93
2018-12-24T03:05:02.236Z,83.93
2018-12-24T03:06:02.215Z,83.97
2018-12-24T03:07:02.204Z,83.62
2018-12-24T03:08:02.196Z,83.76
2018-12-24T03:09:02.195Z,83.41
2018-12-24T03:10:02.176Z,83.65
2018-12-24T03:11:02.164Z,83.14
2018-12-24T03:12:02.151Z,83.76
2018-12-24T03:13:03.079Z,83.34
2018-12-24T03:14:02.144Z,83.83
2018-12-24T03:15:02.127Z,83.24
2018-12-24T03:16:02.109Z,83.34
2018-12-24T03:17:02.097Z,83.34
2018-12-24T03:18:02.102Z,83.76
2018-12-24T03:19:02.104Z,83.24
2018-12-24T03:20:02.069Z,83.34
2018-12-24T03:21:02.068Z,83.34
2018-12-24T03:22:02.074Z,83.45
2018-12-24T03:23:02.069Z,83.34
2018-12-24T03:24:02.076Z,83.31
2018-12-24T03:25:02.018Z,83.14
2018-12-24T03:26:02.003Z,83.24
2018-12-24T03:27:02.070Z,83.65
2018-12-24T03:28:01.979Z,83.76
2018-12-24T03:29:01.981Z,83.76
2018-12-24T03:30:01.960Z,84.38
2018-12-24T03:31:01.953Z,83.97
2018-12-24T03:32:01.938Z,83.65
2018-12-24T03:33:01.927Z,83.65
2018-12-24T03:34:01.935Z,83.34
2018-12-24T03:35:01.949Z,83.45
2018-12-24T03:36:01.896Z,83.34
2018-12-24T03:37:01.883Z,83.34
2018-12-24T03:38:01.874Z,83.24
2018-12-24T03:39:01.880Z,83.65
2018-12-24T03:40:01.852Z,83.55
2018-12-24T03:41:01.845Z,83.34
2018-12-24T03:42:01.834Z,83.65
2018-12-24T03:43:01.819Z,84.28
2018-12-24T03:44:01.819Z,83.76
2018-12-24T03:45:01.798Z,83.65
2018-12-24T03:46:01.788Z,83.76
2018-12-24T03:47:01.775Z,83.45
2018-12-24T03:48:01.770Z,83.55
2018-12-24T03:49:01.768Z,83.65
2018-12-24T03:50:01.746Z,84.17
2018-12-24T03:51:01.838Z,83.97
2018-12-24T03:52:01.721Z,83.55
2018-12-24T03:53:01.712Z,83.45
2018-12-24T03:54:01.714Z,83.59
2018-12-24T03:55:01.690Z,83.76
2018-12-24T03:56:01.682Z,83.76
2018-12-24T03:57:01.679Z,83.86
2018-12-24T03:58:01.661Z,83.76
2018-12-24T03:59:01.659Z,83.34
2018-12-24T04:00:01.649Z,83.65
2018-12-24T04:01:01.641Z,83.55
2018-12-24T04:02:01.623Z,83.31
2018-12-24T04:03:01.607Z,83.34
2018-12-24T04:04:01.622Z,83.34
2018-12-24T04:05:01.590Z,83.45
2018-12-24T04:06:01.576Z,83.34
2018-12-24T04:07:01.562Z,83.45
2018-12-24T04:08:01.555Z,83.76
2018-12-24T04:09:01.556Z,83.55
2018-12-24T04:10:01.531Z,83.76
2018-12-24T04:11:01.519Z,83.97
2018-12-24T04:12:01.509Z,83.76
2018-12-24T04:13:01.497Z,84.59
2018-12-24T04:14:01.498Z,85.11
2018-12-24T04:15:01.476Z,84.90
2018-12-24T04:16:01.466Z,84.80
2018-12-24T04:17:01.464Z,84.90
2018-12-24T04:18:01.444Z,84.69
2018-12-24T04:19:01.443Z,84.59
2018-12-24T04:20:01.427Z,84.80
2018-12-24T04:21:01.411Z,84.69
2018-12-24T04:22:01.402Z,84.38
2018-12-24T04:23:01.390Z,84.80
2018-12-24T04:24:01.393Z,84.28
2018-12-24T04:25:01.368Z,84.59
2018-12-24T04:26:01.359Z,84.38
2018-12-24T04:27:01.346Z,84.38
2018-12-24T04:28:01.338Z,83.97
2018-12-24T04:29:01.339Z,84.07
2018-12-24T04:30:01.518Z,84.31
2018-12-24T04:31:01.306Z,84.42
2018-12-24T04:32:01.295Z,84.21
2018-12-24T04:33:01.282Z,83.97
2018-12-24T04:34:01.274Z,83.65
2018-12-24T04:35:01.277Z,83.86
2018-12-24T04:36:01.259Z,83.59
2018-12-24T04:37:01.242Z,82.24
2018-12-24T04:38:01.230Z,83.07
2018-12-24T04:39:01.221Z,82.45
2018-12-24T04:40:01.218Z,82.45
2018-12-24T04:41:01.195Z,82.45
2018-12-24T04:42:01.187Z,82.65
2018-12-24T04:43:01.175Z,82.03
2018-12-24T04:44:01.169Z,82.49
2018-12-24T04:45:01.167Z,82.49
2018-12-24T04:46:01.143Z,82.28
2018-12-24T04:47:01.135Z,82.70
2018-12-24T04:48:01.123Z,82.59
2018-12-24T04:49:01.113Z,82.49
2018-12-24T04:50:01.120Z,82.80
2018-12-24T04:51:01.089Z,83.01
2018-12-24T04:52:01.080Z,82.63
2018-12-24T04:53:01.068Z,82.49
2018-12-24T04:54:01.060Z,83.22
2018-12-24T04:55:01.058Z,82.59
2018-12-24T04:56:01.037Z,82.73
2018-12-24T04:57:01.027Z,82.32
2018-12-24T04:58:01.015Z,82.59
2018-12-24T04:59:01.004Z,82.63
2018-12-24T05:00:01.008Z,82.63
2018-12-24T05:01:00.981Z,82.73
2018-12-24T05:02:00.975Z,82.63
2018-12-24T05:03:00.963Z,82.63
2018-12-24T05:04:00.952Z,82.63
2018-12-24T05:05:00.953Z,82.73
2018-12-24T05:06:00.930Z,82.32
2018-12-24T05:07:00.918Z,82.42
2018-12-24T05:08:00.908Z,82.94
2018-12-24T05:09:00.898Z,82.32
2018-12-24T05:10:00.899Z,82.53
2018-12-24T05:11:00.876Z,82.84
2018-12-24T05:12:00.866Z,82.84
2018-12-24T05:13:00.856Z,83.46
2018-12-24T05:14:00.847Z,83.25
2018-12-24T05:15:00.851Z,82.84
2018-12-24T05:16:00.824Z,82.32
2018-12-24T05:17:00.814Z,82.73
2018-12-24T05:18:00.804Z,82.32
2018-12-24T05:19:00.793Z,82.32
2018-12-24T05:20:00.797Z,82.77
2018-12-24T05:21:00.771Z,82.73
2018-12-24T05:22:00.762Z,82.35
2018-12-24T05:23:00.753Z,82.35
2018-12-24T05:24:00.739Z,82.56
2018-12-24T05:25:00.739Z,82.56
2018-12-24T05:26:00.718Z,82.63
2018-12-24T05:27:00.708Z,82.56
2018-12-24T05:28:00.696Z,82.32
2018-12-24T05:29:00.687Z,82.87
2018-12-24T05:30:00.696Z,82.67
2018-12-24T05:31:00.663Z,82.32
2018-12-24T05:32:00.653Z,82.53
2018-12-24T05:33:00.643Z,82.63
2018-12-24T05:34:00.644Z,82.73
2018-12-24T05:35:00.635Z,82.63
2018-12-24T05:36:00.610Z,81.90
2018-12-24T05:37:00.601Z,81.70
2018-12-24T05:38:00.589Z,81.90
2018-12-24T05:39:00.577Z,82.21
2018-12-24T05:40:00.581Z,81.80
2018-12-24T05:41:00.562Z,81.49
2018-12-24T05:42:00.547Z,81.80
2018-12-24T05:43:00.538Z,81.90
2018-12-24T05:44:00.527Z,81.90
2018-12-24T05:45:00.526Z,81.90
2018-12-24T05:46:00.508Z,81.70
2018-12-24T05:47:00.492Z,81.38
2018-12-24T05:48:00.489Z,81.59
2018-12-24T05:49:00.472Z,82.01
2018-12-24T05:50:00.472Z,82.21
2018-12-24T05:51:00.451Z,82.42
2018-12-24T05:52:00.448Z,82.73
2018-12-24T05:53:00.429Z,82.63
2018-12-24T05:54:00.421Z,82.25
2018-12-24T05:55:00.425Z,82.21
2018-12-24T05:56:00.398Z,82.11
2018-12-24T05:57:00.386Z,81.59
2018-12-24T05:58:00.377Z,82.11
2018-12-24T05:59:00.368Z,82.21
2018-12-24T06:00:00.368Z,81.38
2018-12-24T06:01:00.344Z,81.49
2018-12-24T06:02:00.334Z,80.66
2018-12-24T06:03:00.324Z,80.45
2018-12-24T06:04:00.316Z,80.04
2018-12-24T06:05:00.339Z,80.87
2018-12-24T06:06:00.294Z,80.97
2018-12-24T06:07:00.281Z,81.42
2018-12-24T06:08:00.272Z,81.49
2018-12-24T06:09:00.262Z,81.90
2018-12-24T06:10:00.299Z,81.07
2018-12-24T06:11:00.251Z,81.18
2018-12-24T06:12:00.226Z,81.28
2018-12-24T06:13:00.216Z,81.18
2018-12-24T06:14:00.207Z,80.97
2018-12-24T06:15:00.258Z,81.07
2018-12-24T06:16:00.198Z,80.83
2018-12-24T06:17:00.178Z,80.97
2018-12-24T06:18:00.180Z,81.28
2018-12-24T06:19:00.155Z,80.87
2018-12-24T06:20:00.257Z,80.45
2018-12-24T06:21:00.145Z,80.55
2018-12-24T06:22:00.138Z,80.10
2018-12-24T06:23:00.111Z,80.66
2018-12-24T06:24:00.099Z,79.83
2018-12-24T06:25:00.143Z,78.58
2018-12-24T06:26:00.099Z,79.30
2018-12-24T06:27:00.077Z,79.17
2018-12-24T06:28:00.059Z,78.89
2018-12-24T06:29:00.047Z,79.30
2018-12-24T06:30:00.036Z,79.27
2018-12-24T06:31:00.038Z,79.90
2018-12-24T06:32:00.013Z,78.58
2018-12-24T06:33:00.006Z,77.02
2018-12-24T06:34:00.000Z,77.02
2018-12-24T06:34:59.982Z,78.06
2018-12-24T06:35:59.983Z,78.37
2018-12-24T06:36:59.961Z,77.64
2018-12-24T06:37:59.952Z,77.75
2018-12-24T06:38:59.941Z,75.98
2018-12-24T06:39:59.931Z,75.57
2018-12-24T06:41:00.048Z,76.71
2018-12-24T06:41:59.907Z,75.88
2018-12-24T06:42:59.897Z,75.67
2018-12-24T06:44:06.747Z,76.09
2018-12-24T06:45:00.875Z,76.61
2018-12-24T06:45:59.882Z,77.44
2018-12-24T06:46:59.854Z,76.50
2018-12-24T06:47:59.844Z,74.84
2018-12-24T06:48:59.835Z,74.63
2018-12-24T06:49:59.822Z,75.67
2018-12-24T06:50:59.824Z,74.22
2018-12-24T06:51:59.801Z,74.32
2018-12-24T06:52:59.790Z,74.88
2018-12-24T06:53:59.781Z,74.74
2018-12-24T06:54:59.771Z,75.67
2018-12-24T06:55:59.778Z,75.71
2018-12-24T06:56:59.747Z,76.92
2018-12-24T06:57:59.738Z,75.57
2018-12-24T06:58:59.725Z,75.88
2018-12-24T06:59:59.715Z,77.02
2018-12-24T07:00:59.717Z,74.95
2018-12-24T07:01:59.696Z,73.70
2018-12-24T07:02:59.687Z,74.01
2018-12-24T07:03:59.672Z,75.26
2018-12-24T07:04:59.663Z,74.32
2018-12-24T07:05:59.666Z,75.50
2018-12-24T07:06:59.642Z,75.50
2018-12-24T07:07:59.634Z,74.46
2018-12-24T07:08:59.628Z,74.98
2018-12-24T07:09:59.608Z,75.92
2018-12-24T07:10:59.611Z,74.77
2018-12-24T07:11:59.590Z,75.22
2018-12-24T07:12:59.579Z,74.60
2018-12-24T07:13:59.568Z,74.70
2018-12-24T07:14:59.559Z,75.12
2018-12-24T07:15:59.557Z,75.01
2018-12-24T07:16:59.535Z,76.06
2018-12-24T07:17:59.523Z,76.37
2018-12-24T07:18:59.512Z,75.36
2018-12-24T07:19:59.502Z,76.19
2018-12-24T07:20:59.503Z,75.98
2018-12-24T07:21:59.484Z,75.78
2018-12-24T07:22:59.470Z,76.43
2018-12-24T07:23:59.460Z,76.02
2018-12-24T07:24:59.454Z,75.98
2018-12-24T07:25:59.452Z,76.12
2018-12-24T07:26:59.428Z,76.12
2018-12-24T07:27:59.417Z,76.33
2018-12-24T07:28:59.424Z,76.85
2018-12-24T07:29:59.397Z,77.16
2018-12-24T07:30:59.396Z,75.81
2018-12-24T07:31:59.376Z,77.16
2018-12-24T07:32:59.364Z,77.48
2018-12-24T07:33:59.354Z,76.75
2018-12-24T07:34:59.361Z,77.16
2018-12-24T07:35:59.378Z,77.58
2018-12-24T07:36:59.321Z,76.33
2018-12-24T07:37:59.310Z,76.12
2018-12-24T07:38:59.303Z,76.43
2018-12-24T07:39:59.289Z,76.33
2018-12-24T07:40:59.278Z,75.09
2018-12-24T07:41:59.279Z,74.88
2018-12-24T07:42:59.259Z,75.09
2018-12-24T07:43:59.246Z,75.92
2018-12-24T07:44:59.236Z,75.40
2018-12-24T07:45:59.226Z,75.71
2018-12-24T07:46:59.227Z,76.02
2018-12-24T07:47:59.204Z,76.95
2018-12-24T07:48:59.196Z,76.12
2018-12-24T07:49:59.182Z,76.23
2018-12-24T07:50:59.173Z,76.12
2018-12-24T07:51:59.173Z,76.85
2018-12-24T07:52:59.154Z,77.16
2018-12-24T07:53:59.143Z,77.37
2018-12-24T07:54:59.129Z,76.82
2018-12-24T07:55:59.121Z,76.85
2018-12-24T07:56:59.118Z,75.88
2018-12-24T07:57:59.099Z,75.78
2018-12-24T07:58:59.089Z,75.88
2018-12-24T07:59:59.075Z,75.05
2018-12-24T08:00:59.143Z,75.15
2018-12-24T08:01:59.069Z,76.02
2018-12-24T08:02:59.043Z,75.98
2018-12-24T08:03:59.034Z,76.02
2018-12-24T08:04:59.025Z,74.88
2018-12-24T08:05:59.011Z,74.57
2018-12-24T08:06:59.017Z,74.77
2018-12-24T08:07:58.990Z,74.57
2018-12-24T08:08:58.979Z,74.57
2018-12-24T08:09:58.968Z,74.46
2018-12-24T08:10:58.959Z,74.67
2018-12-24T08:11:58.963Z,74.25
2018-12-24T08:12:58.937Z,74.88
2018-12-24T08:13:58.926Z,74.98
2018-12-24T08:14:58.916Z,75.09
2018-12-24T08:15:58.907Z,76.12
2018-12-24T08:16:58.905Z,75.09
2018-12-24T08:17:58.883Z,75.60
2018-12-24T08:18:58.873Z,73.42
2018-12-24T08:19:58.864Z,73.11
2018-12-24T08:20:58.855Z,72.69
2018-12-24T08:21:58.882Z,73.63
2018-12-24T08:22:58.832Z,74.88
2018-12-24T08:23:58.822Z,75.85
2018-12-24T08:24:58.812Z,74.60
2018-12-24T08:25:58.803Z,73.97
2018-12-24T08:26:58.800Z,73.66
2018-12-24T08:27:58.789Z,74.70
2018-12-24T08:28:58.769Z,74.91
2018-12-24T08:29:58.756Z,75.43
2018-12-24T08:30:58.751Z,75.01
2018-12-24T08:31:58.734Z,75.95
2018-12-24T08:32:58.739Z,75.26
2018-12-24T08:33:58.714Z,74.95
2018-12-24T08:34:58.709Z,75.74
2018-12-24T08:35:58.693Z,75.57
2018-12-24T08:36:58.681Z,74.84
2018-12-24T08:37:58.683Z,75.05
2018-12-24T08:38:58.666Z,76.37
2018-12-24T08:39:58.655Z,76.20
2018-12-24T08:40:58.640Z,74.63
2018-12-24T08:41:58.637Z,74.95
2018-12-24T08:42:58.629Z,75.12
2018-12-24T08:43:58.612Z,74.70
2018-12-24T08:44:58.598Z,76.37
2018-12-24T08:45:58.587Z,76.16
2018-12-24T08:46:58.586Z,75.54
2018-12-24T08:47:58.577Z,72.93
2018-12-24T08:48:58.555Z,73.56
2018-12-24T08:49:58.543Z,73.46
2018-12-24T08:50:58.533Z,73.56
2018-12-24T08:51:58.528Z,73.97
2018-12-24T08:52:58.524Z,73.14
2018-12-24T08:53:58.503Z,73.83
2018-12-24T08:54:58.489Z,74.49
2018-12-24T08:55:58.479Z,75.01
2018-12-24T08:56:58.470Z,74.18
2018-12-24T08:57:58.470Z,74.18
2018-12-24T08:58:58.448Z,73.97
2018-12-24T08:59:58.439Z,74.70
2018-12-24T09:00:58.427Z,75.09
2018-12-24T09:01:58.425Z,75.12
2018-12-24T09:02:58.415Z,75.54
2018-12-24T09:03:58.399Z,73.94
2018-12-24T09:04:58.383Z,72.90
2018-12-24T09:05:58.373Z,72.69
2018-12-24T09:06:58.363Z,72.80
2018-12-24T09:07:58.363Z,71.65
2018-12-24T09:08:58.341Z,71.34
2018-12-24T09:09:58.331Z,72.93
2018-12-24T09:10:58.322Z,73.94
2018-12-24T09:11:58.310Z,74.25
2018-12-24T09:12:58.315Z,72.59
2018-12-24T09:13:58.289Z,72.38
2018-12-24T09:14:58.280Z,72.90
2018-12-24T09:15:58.268Z,73.21
2018-12-24T09:16:58.256Z,73.73
2018-12-24T09:17:58.257Z,72.41
2018-12-24T09:18:58.236Z,72.49
2018-12-24T09:19:58.226Z,72.69
2018-12-24T09:20:58.215Z,73.63
2018-12-24T09:21:58.208Z,73.94
2018-12-24T09:22:58.204Z,73.83
2018-12-24T09:23:58.183Z,73.83
2018-12-24T09:24:58.173Z,73.63
2018-12-24T09:25:58.164Z,73.94
2018-12-24T09:26:58.154Z,74.32
2018-12-24T09:27:58.150Z,74.35
2018-12-24T09:28:58.129Z,74.53
2018-12-24T09:29:58.121Z,74.63
2018-12-24T09:30:58.110Z,73.70
2018-12-24T09:31:58.097Z,72.90
2018-12-24T09:32:58.102Z,71.72
2018-12-24T09:33:58.079Z,72.80
2018-12-24T09:34:58.066Z,73.18
2018-12-24T09:35:58.054Z,74.22
2018-12-24T09:36:58.099Z,74.01
2018-12-24T09:37:58.046Z,71.72
2018-12-24T09:38:58.023Z,72.03
2018-12-24T09:39:58.015Z,72.55
2018-12-24T09:40:58.002Z,72.45
2018-12-24T09:41:57.991Z,72.66
2018-12-24T09:42:57.991Z,73.07
2018-12-24T09:43:57.975Z,73.18
2018-12-24T09:44:59.025Z,72.34
2018-12-24T09:45:57.948Z,73.49
2018-12-24T09:46:57.938Z,72.45
2018-12-24T09:47:57.944Z,72.14
2018-12-24T09:48:57.924Z,73.28
2018-12-24T09:49:57.909Z,73.60
2018-12-24T09:50:57.897Z,72.34
2018-12-24T09:51:57.886Z,72.24
2018-12-24T09:52:57.885Z,71.51
2018-12-24T09:53:57.865Z,71.83
2018-12-24T09:54:57.854Z,71.51
2018-12-24T09:55:57.843Z,72.24
2018-12-24T09:56:57.838Z,71.93
2018-12-24T09:57:57.831Z,72.66
2018-12-24T09:58:57.811Z,72.94
2018-12-24T09:59:57.801Z,72.86
2018-12-24T10:00:57.790Z,72.45
2018-12-24T10:01:57.779Z,71.62
2018-12-24T10:02:57.783Z,71.93
2018-12-24T10:04:02.852Z,72.66
2018-12-24T10:04:58.745Z,72.55
2018-12-24T10:05:57.780Z,72.66
2018-12-24T10:06:57.728Z,73.39
2018-12-24T10:07:57.730Z,73.46
2018-12-24T10:08:57.704Z,72.76
2018-12-24T10:09:57.697Z,72.97
2018-12-24T10:10:57.688Z,71.72
2018-12-24T10:11:57.673Z,72.00
2018-12-24T10:12:57.694Z,72.03
2018-12-24T10:13:57.653Z,72.86
2018-12-24T10:14:57.647Z,72.94
2018-12-24T10:15:57.635Z,72.76
2018-12-24T10:16:57.630Z,72.97
2018-12-24T10:17:57.608Z,72.86
2018-12-24T10:18:57.609Z,73.49
2018-12-24T10:19:57.591Z,73.46
2018-12-24T10:20:57.581Z,72.76
2018-12-24T10:21:57.565Z,73.25
2018-12-24T10:22:57.569Z,73.87
2018-12-24T10:23:57.558Z,73.46
2018-12-24T10:24:57.535Z,73.46
2018-12-24T10:25:57.524Z,73.14
2018-12-24T10:26:57.513Z,73.35
2018-12-24T10:27:57.513Z,73.46
2018-12-24T10:28:57.503Z,73.97
2018-12-24T10:29:57.480Z,73.35
2018-12-24T10:30:57.471Z,73.18
2018-12-24T10:31:57.458Z,73.46
2018-12-24T10:32:57.450Z,73.77
2018-12-24T10:33:57.456Z,73.56
2018-12-24T10:34:57.429Z,73.56
2018-12-24T10:35:57.416Z,73.46
2018-12-24T10:36:57.404Z,73.35
2018-12-24T10:37:57.394Z,72.73
2018-12-24T10:38:57.396Z,73.87
2018-12-24T10:39:57.374Z,73.46
2018-12-24T10:40:57.365Z,73.25
2018-12-24T10:41:57.352Z,73.25
2018-12-24T10:42:57.347Z,73.56
2018-12-24T10:43:57.342Z,72.63
2018-12-24T10:44:57.321Z,73.66
2018-12-24T10:45:57.313Z,73.35
2018-12-24T10:46:58.480Z,72.73
2018-12-24T10:47:57.288Z,72.94
2018-12-24T10:48:57.288Z,72.76
2018-12-24T10:49:57.364Z,72.31
2018-12-24T10:50:57.260Z,73.04
2018-12-24T10:51:57.250Z,73.25
2018-12-24T10:52:57.298Z,73.04
2018-12-24T10:53:57.236Z,73.25
2018-12-24T10:54:57.218Z,72.83
2018-12-24T10:55:57.206Z,72.73
2018-12-24T10:56:57.194Z,72.73
2018-12-24T10:57:57.182Z,72.63
2018-12-24T10:58:57.184Z,73.25
2018-12-24T10:59:57.163Z,72.94
2018-12-24T11:00:57.159Z,73.28
2018-12-24T11:01:57.141Z,73.14
2018-12-24T11:02:57.128Z,72.94
2018-12-24T11:03:57.132Z,72.97
2018-12-24T11:04:57.108Z,73.04
2018-12-24T11:05:57.103Z,72.31
2018-12-24T11:06:57.094Z,73.56
2018-12-24T11:07:57.075Z,73.56
2018-12-24T11:08:57.081Z,73.25
2018-12-24T11:09:57.056Z,73.07
2018-12-24T11:10:57.044Z,72.14
2018-12-24T11:11:57.038Z,72.90
2018-12-24T11:12:57.023Z,72.90
2018-12-24T11:13:57.027Z,74.04
2018-12-24T11:14:57.002Z,73.21
2018-12-24T11:15:56.991Z,74.04
2018-12-24T11:16:56.981Z,73.73
2018-12-24T11:17:56.969Z,73.94
2018-12-24T11:18:56.970Z,74.04
2018-12-24T11:19:56.948Z,73.52
2018-12-24T11:20:56.937Z,73.63
2018-12-24T11:21:56.928Z,73.73
2018-12-24T11:22:56.950Z,72.28
2018-12-24T11:23:56.927Z,72.80
2018-12-24T11:24:56.897Z,71.75
2018-12-24T11:25:56.886Z,72.69
2018-12-24T11:26:56.891Z,73.42
2018-12-24T11:27:56.864Z,73.00
2018-12-24T11:28:56.867Z,73.32
2018-12-24T11:29:56.842Z,72.90
2018-12-24T11:30:56.843Z,72.28
2018-12-24T11:31:56.821Z,71.72
2018-12-24T11:32:56.811Z,71.86
2018-12-24T11:33:57.687Z,72.24
2018-12-24T11:34:56.790Z,70.51
2018-12-24T11:35:56.778Z,70.72
2018-12-24T11:36:56.767Z,71.03
2018-12-24T11:37:56.756Z,70.72
2018-12-24T11:38:56.801Z,69.99
2018-12-24T11:39:56.735Z,71.83
2018-12-24T11:40:56.725Z,71.55
2018-12-24T11:41:56.716Z,70.30
2018-12-24T11:42:56.744Z,70.51
2018-12-24T11:43:56.698Z,71.13
2018-12-24T11:44:56.695Z,70.20
2018-12-24T11:45:56.671Z,69.57
2018-12-24T11:46:56.661Z,70.82
2018-12-24T11:47:56.651Z,71.55
2018-12-24T11:48:56.640Z,71.65
2018-12-24T11:49:56.644Z,72.49
2018-12-24T11:50:56.618Z,72.38
2018-12-24T11:51:56.608Z,73.11
2018-12-24T11:52:56.599Z,72.28
2018-12-24T11:53:56.587Z,72.28
2018-12-24T11:54:56.586Z,72.38
2018-12-24T11:55:56.574Z,70.61
2018-12-24T11:56:56.555Z,71.75
2018-12-24T11:57:56.547Z,70.72
2018-12-24T11:58:56.534Z,70.30
2018-12-24T11:59:56.536Z,71.65
2018-12-24T12:00:56.623Z,72.45
2018-12-24T12:01:56.501Z,71.72
2018-12-24T12:02:56.492Z,71.62
2018-12-24T12:03:56.480Z,71.44
2018-12-24T12:04:56.483Z,71.34
2018-12-24T12:05:57.169Z,71.83
2018-12-24T12:06:56.562Z,71.03
2018-12-24T12:07:56.439Z,70.79
2018-12-24T12:08:56.429Z,71.20
2018-12-24T12:09:56.426Z,72.03
2018-12-24T12:10:56.414Z,71.83
2018-12-24T12:11:56.394Z,69.96
2018-12-24T12:12:56.384Z,71.83
2018-12-24T12:13:56.374Z,71.10
2018-12-24T12:14:56.378Z,72.24
2018-12-24T12:15:56.357Z,72.34
2018-12-24T12:16:56.390Z,72.03
2018-12-24T12:17:56.331Z,72.03
2018-12-24T12:18:56.320Z,70.89
2018-12-24T12:19:56.323Z,70.68
2018-12-24T12:20:56.300Z,71.20
2018-12-24T12:21:56.289Z,71.10
2018-12-24T12:22:56.279Z,69.96
2018-12-24T12:23:56.268Z,70.58
2018-12-24T12:24:56.321Z,70.48
2018-12-24T12:25:56.246Z,70.58
2018-12-24T12:26:56.235Z,72.03
2018-12-24T12:27:56.225Z,71.72
2018-12-24T12:28:56.215Z,72.11
2018-12-24T12:29:56.219Z,71.17
2018-12-24T12:30:56.193Z,70.75
2018-12-24T12:31:56.182Z,71.20
2018-12-24T12:32:56.173Z,70.34
2018-12-24T12:33:56.166Z,69.30
2018-12-24T12:34:56.162Z,70.97
2018-12-24T12:35:56.150Z,70.68
2018-12-24T12:36:56.135Z,70.75
2018-12-24T12:37:56.119Z,71.10
2018-12-24T12:38:56.109Z,71.17
2018-12-24T12:39:56.111Z,69.92
2018-12-24T12:40:56.090Z,70.75
2018-12-24T12:41:56.080Z,71.17
2018-12-24T12:42:56.065Z,70.75
2018-12-24T12:43:56.054Z,70.75
2018-12-24T12:44:56.055Z,69.20
2018-12-24T12:45:56.033Z,70.54
2018-12-24T12:46:56.025Z,70.34
2018-12-24T12:47:57.498Z,69.71
2018-12-24T12:48:56.004Z,69.30
2018-12-24T12:49:56.004Z,69.82
2018-12-24T12:50:55.982Z,69.09
2018-12-24T12:51:55.972Z,70.65